createdAt,value
2019-02-19T00:03:54.993Z,159.30
2019-02-19T00:09:00.280Z,153.07
2019-02-19T00:14:05.498Z,152.00
2019-02-19T00:19:10.832Z,155.23
2019-02-19T00:24:16.101Z,152.50
2019-02-19T00:29:21.397Z,153.33
2019-02-19T00:34:26.481Z,148.03
2019-02-19T00:39:31.572Z,159.50
2019-02-19T00:44:36.913Z,166.80
2019-02-19T00:49:42.475Z,166.07
2019-02-19T00:54:47.944Z,151.63
2019-02-19T00:59:53.588Z,152.20
2019-02-19T01:04:59.986Z,161.73
2019-02-19T01:10:07.097Z,152.73
2019-02-19T01:15:12.449Z,159.67
2019-02-19T01:20:18.010Z,151.63
2019-02-19T01:25:23.213Z,161.90
2019-02-19T01:30:28.569Z,159.77
2019-02-19T01:35:33.935Z,151.93
2019-02-19T01:40:39.140Z,157.03
2019-02-19T01:45:45.239Z,155.50
2019-02-19T01:50:50.391Z,171.27
2019-02-19T01:55:55.699Z,183.53
2019-02-19T02:01:01.199Z,181.73
2019-02-19T02:06:06.548Z,180.30
2019-02-19T02:11:11.704Z,157.57
2019-02-19T02:16:17.053Z,151.77
2019-02-19T02:21:22.322Z,149.63
2019-02-19T02:26:27.570Z,161.43
2019-02-19T02:31:33.346Z,153.40
2019-02-19T02:36:38.804Z,135.23
2019-02-19T02:41:44.207Z,134.80
2019-02-19T02:46:49.541Z,152.83
2019-02-19T02:51:54.775Z,158.00
2019-02-19T02:57:00.247Z,150.90
2019-02-19T03:02:05.601Z,143.20
2019-02-19T03:07:12.526Z,127.67
2019-02-19T03:12:17.892Z,128.53
2019-02-19T03:17:23.115Z,118.23
2019-02-19T03:22:29.609Z,129.23
2019-02-19T03:27:35.048Z,132.30
2019-02-19T03:32:40.431Z,125.80
2019-02-19T03:37:45.688Z,132.77
2019-02-19T03:42:51.048Z,120.73
2019-02-19T03:47:56.480Z,118.63
2019-02-19T03:53:01.945Z,134.93
2019-02-19T03:58:07.612Z,114.80
2019-02-19T04:03:12.877Z,115.10
2019-02-19T04:08:18.228Z,111.77
2019-02-19T04:13:23.726Z,114.50
2019-02-19T04:18:29.044Z,124.23
2019-02-19T04:23:34.615Z,113.20
2019-02-19T04:28:40.288Z,115.23
2019-02-19T04:33:45.638Z,117.20
2019-02-19T04:38:50.795Z,119.50
2019-02-19T04:43:56.060Z,125.23
2019-02-19T04:49:01.581Z,119.37
2019-02-19T04:54:06.927Z,125.53
2019-02-19T04:59:12.285Z,122.87
2019-02-19T05:04:17.481Z,124.97
2019-02-19T05:09:22.828Z,210.20
2019-02-19T05:14:28.095Z,182.40
2019-02-19T05:19:33.875Z,137.57
2019-02-19T05:24:39.330Z,124.53
2019-02-19T05:29:44.583Z,123.30
2019-02-19T05:34:50.050Z,123.10
2019-02-19T05:39:55.414Z,119.63
2019-02-19T05:45:00.818Z,120.63
2019-02-19T05:50:08.601Z,120.27
2019-02-19T05:55:13.942Z,133.20
2019-02-19T06:00:20.428Z,135.63
2019-02-19T06:05:25.774Z,134.40
2019-02-19T06:10:31.027Z,133.30
2019-02-19T06:15:36.396Z,132.77
2019-02-19T06:20:41.855Z,130.37
2019-02-19T06:25:48.027Z,137.57
2019-02-19T06:30:53.204Z,133.80
2019-02-19T06:35:58.545Z,146.10
2019-02-19T06:41:04.531Z,136.20
2019-02-19T06:46:09.993Z,144.47
2019-02-19T06:51:15.373Z,141.27
2019-02-19T06:56:20.724Z,148.70
2019-02-19T07:01:27.910Z,142.93
2019-02-19T07:06:33.007Z,124.20
2019-02-19T07:11:38.307Z,124.93
2019-02-19T07:16:43.668Z,139.40
2019-02-19T07:21:48.819Z,140.93
2019-02-19T07:26:54.587Z,222.80
2019-02-19T07:31:59.952Z,165.90
2019-02-19T07:37:05.305Z,170.77
2019-02-19T07:42:10.397Z,133.17
2019-02-19T07:47:24.262Z,159.13
2019-02-19T07:52:22.517Z,158.67
2019-02-19T07:57:27.963Z,156.67
2019-02-19T08:02:33.437Z,154.33
2019-02-19T08:07:39.001Z,128.63
2019-02-19T08:12:44.366Z,123.27
2019-02-19T08:17:49.725Z,114.70
2019-02-19T08:22:54.900Z,103.83
2019-02-19T08:28:00.241Z,102.87
2019-02-19T08:33:05.633Z,102.53
2019-02-19T08:38:10.762Z,79.53
2019-02-19T08:43:16.779Z,85.63
2019-02-19T08:48:21.972Z,78.67
2019-02-19T08:53:27.321Z,71.43
2019-02-19T08:58:32.584Z,80.27
2019-02-19T09:03:37.841Z,83.60
2019-02-19T09:08:43.441Z,86.87
2019-02-19T09:13:48.824Z,79.10
2019-02-19T09:18:54.439Z,78.60
2019-02-19T09:23:59.683Z,73.53
2019-02-19T09:29:05.057Z,67.87
2019-02-19T09:34:10.541Z,70.30
2019-02-19T09:39:16.173Z,70.67
2019-02-19T09:44:21.631Z,68.67
2019-02-19T09:49:26.989Z,65.70
2019-02-19T09:54:32.444Z,76.13
2019-02-19T09:59:37.708Z,58.83
2019-02-19T10:04:43.276Z,61.47
2019-02-19T10:09:48.641Z,62.37
2019-02-19T10:14:54.092Z,63.73
2019-02-19T10:19:59.740Z,70.30
2019-02-19T10:25:11.907Z,65.63
2019-02-19T10:30:20.862Z,65.67
2019-02-19T10:35:26.380Z,58.67
2019-02-19T10:40:31.941Z,61.50
2019-02-19T10:45:37.416Z,56.07
2019-02-19T10:50:42.558Z,76.53
2019-02-19T10:55:47.640Z,63.90
2019-02-19T11:00:53.071Z,116.53
2019-02-19T11:05:58.631Z,77.77
2019-02-19T11:11:03.887Z,52.90
2019-02-19T11:16:09.013Z,52.43
2019-02-19T11:21:19.488Z,51.57
2019-02-19T11:26:21.417Z,49.27
2019-02-19T11:31:26.762Z,50.87
2019-02-19T11:36:32.123Z,48.10
2019-02-19T11:41:37.171Z,49.90
2019-02-19T11:46:42.441Z,50.50
2019-02-19T11:51:47.687Z,68.73
2019-02-19T11:56:53.040Z,52.33
2019-02-19T12:01:58.994Z,47.60
2019-02-19T12:07:04.375Z,42.10
2019-02-19T12:12:09.626Z,46.83
2019-02-19T12:17:14.894Z,46.03
2019-02-19T12:22:20.138Z,46.63
2019-02-19T12:27:25.393Z,44.93
2019-02-19T12:32:30.663Z,38.53
2019-02-19T12:37:36.041Z,38.77
2019-02-19T12:42:41.367Z,38.67
2019-02-19T12:47:46.652Z,41.40
2019-02-19T12:52:51.987Z,40.90
2019-02-19T12:57:57.763Z,44.10
2019-02-19T13:03:03.434Z,43.37
2019-02-19T13:08:08.685Z,41.03
2019-02-19T13:13:14.077Z,41.60
2019-02-19T13:18:19.294Z,44.40
2019-02-19T13:23:24.581Z,33.20
2019-02-19T13:28:30.838Z,34.87
2019-02-19T13:33:36.100Z,37.53
2019-02-19T13:38:41.453Z,35.60
2019-02-19T13:43:46.700Z,32.27
2019-02-19T13:48:52.276Z,31.93
2019-02-19T13:53:59.360Z,25.57
2019-02-19T13:59:04.827Z,19.73
2019-02-19T14:04:09.980Z,19.93
2019-02-19T14:09:15.455Z,20.33
2019-02-19T14:14:25.524Z,95.37
2019-02-19T14:19:47.668Z,72.07
2019-02-19T14:25:03.262Z,22.30
2019-02-19T14:30:27.859Z,22.87
2019-02-19T14:35:40.502Z,22.83
2019-02-19T14:41:03.472Z,24.53
2019-02-19T14:46:10.473Z,19.60
2019-02-19T14:51:26.481Z,19.23
2019-02-19T14:56:42.495Z,17.57
2019-02-19T15:02:05.914Z,15.80
2019-02-19T15:07:15.271Z,45.37
2019-02-19T15:12:40.547Z,18.03
2019-02-19T15:17:59.624Z,17.77
2019-02-19T15:23:24.157Z,18.13
2019-02-19T15:28:43.384Z,19.60
2019-02-19T15:34:07.106Z,36.83
2019-02-19T15:39:32.337Z,25.57
2019-02-19T15:44:48.134Z,81.63
2019-02-19T15:49:54.939Z,27.60
2019-02-19T15:55:18.318Z,29.03
2019-02-19T16:00:25.213Z,42.30
2019-02-19T16:05:34.871Z,46.23
2019-02-19T16:10:44.735Z,65.13
2019-02-19T16:16:09.761Z,34.13
2019-02-19T16:21:22.585Z,34.63
2019-02-19T16:26:35.430Z,33.63
2019-02-19T16:31:42.421Z,27.30
2019-02-19T16:36:49.510Z,33.10
2019-02-19T16:41:58.834Z,33.17
2019-02-19T16:47:08.628Z,37.60
2019-02-19T16:52:30.669Z,43.07
2019-02-19T16:57:46.583Z,38.40
2019-02-19T17:02:53.709Z,49.37
2019-02-19T17:08:00.877Z,44.13
2019-02-19T17:13:23.146Z,45.00
2019-02-19T17:18:45.212Z,43.23
2019-02-19T17:23:52.087Z,68.13
2019-02-19T17:29:05.131Z,74.27
2019-02-19T17:34:28.379Z,67.77
2019-02-19T17:39:39.699Z,63.00
2019-02-19T17:44:52.648Z,36.53
2019-02-19T17:50:05.265Z,32.27
2019-02-19T17:55:12.184Z,27.37
2019-02-19T18:00:19.278Z,30.53
2019-02-19T18:05:26.385Z,26.53
2019-02-19T18:10:39.398Z,28.27
2019-02-19T18:15:46.270Z,27.03
2019-02-19T18:20:51.323Z,35.27
2019-02-19T18:25:56.596Z,32.53
2019-02-19T18:31:01.917Z,30.80
2019-02-19T18:36:07.207Z,32.90
2019-02-19T18:41:12.299Z,37.20
2019-02-19T18:46:17.971Z,33.53
2019-02-19T18:51:23.201Z,39.30
2019-02-19T18:56:28.649Z,37.83
2019-02-19T19:01:34.017Z,187.50
2019-02-19T19:06:39.166Z,68.43
2019-02-19T19:11:44.419Z,39.57
2019-02-19T19:16:49.673Z,28.57
2019-02-19T19:21:55.237Z,23.03
2019-02-19T19:27:00.700Z,24.03
2019-02-19T19:32:05.924Z,22.10
2019-02-19T19:37:11.219Z,22.97
2019-02-19T19:42:16.561Z,26.63
2019-02-19T19:47:22.138Z,23.17
2019-02-19T19:52:27.492Z,21.13
2019-02-19T19:57:32.854Z,22.77
2019-02-19T20:02:39.447Z,22.70
2019-02-19T20:07:44.731Z,28.40
2019-02-19T20:12:49.950Z,20.93
2019-02-19T20:17:55.322Z,23.73
2019-02-19T20:23:00.577Z,18.50
2019-02-19T20:28:06.124Z,16.40
2019-02-19T20:33:11.538Z,15.23
2019-02-19T20:38:16.601Z,13.03
2019-02-19T20:43:21.909Z,14.17
2019-02-19T20:48:29.606Z,13.90
2019-02-19T20:53:34.975Z,15.97
2019-02-19T20:58:40.179Z,14.33
2019-02-19T21:03:45.503Z,15.23
2019-02-19T21:08:50.937Z,16.37
2019-02-19T21:13:56.182Z,16.33
2019-02-19T21:19:03.087Z,18.47
2019-02-19T21:24:08.536Z,21.87
2019-02-19T21:29:13.924Z,20.03
2019-02-19T21:34:19.576Z,18.50
2019-02-19T21:39:24.701Z,25.37
2019-02-19T21:44:30.414Z,22.47
2019-02-19T21:49:35.782Z,18.70
2019-02-19T21:54:41.214Z,19.97
2019-02-19T21:59:46.784Z,23.87
2019-02-19T22:04:52.499Z,16.30
2019-02-19T22:09:57.810Z,21.53
2019-02-19T22:15:03.374Z,16.37
2019-02-19T22:20:38.734Z,21.00
2019-02-19T22:25:43.964Z,20.87
2019-02-19T22:30:49.250Z,19.97
2019-02-19T22:35:54.463Z,29.03
2019-02-19T22:40:59.976Z,28.27
2019-02-19T22:46:05.232Z,12.53
2019-02-19T22:51:10.500Z,23.23
2019-02-19T22:56:17.679Z,30.13
2019-02-19T23:01:34.000Z,27.43
2019-02-19T23:06:39.361Z,16.03
2019-02-19T23:11:44.761Z,19.10
2019-02-19T23:16:50.079Z,19.23
2019-02-19T23:21:55.459Z,15.90
2019-02-19T23:27:02.113Z,11.00
2019-02-19T23:32:07.683Z,16.60
2019-02-19T23:37:13.252Z,15.80
2019-02-19T23:42:18.616Z,14.17
2019-02-19T23:47:23.969Z,17.47
2019-02-19T23:52:30.605Z,11.53
2019-02-19T23:57:36.015Z,14.03
